Garden City, Kansas
Current Conditions -  °F | °C
As of 1:54 AM on Saturday 25 Oct 2014 (Local Time) from KGCK Reporting Station
Clear Clear  
Wind Chill: 12°   Ceiling: Unl
Heat Index: 12°   Visibility: 10mi
Dew Point:   Wind: 7mph
Humidity: 71%   Direction: 180°S
Pressure: 30.08"   Gusts: NA
Location:  37.97°N, 100.87°W
Report Text: KGCK 250654Z AUTO 18006KT 10SM CLR 12/07 A3008 RMK AO2 SLP163 T01170067
Loading
Personal Weather Stations






























Interactive Weather Map
Tropical Storm Tracking
New forecast layout! Learn more

10-Day Weather Forecast

Advertisements
Track Severe Weather on mobile